Time;durP1;ratioP1;P1;durP2;ratioP2;P2;SDS_P1;SDS_P2;PMS_P1;PMS_P2;Temp;Humidity;BMP_temperature;BMP_pressure;BME280_temperature;BME280_humidity;BME280_pressure;Samples;Min_cycle;Max_cycle;Signal;HPM_P1;HPM_P2
2022/03/14 00:00:16;;;;;;;23.17;18.48;;;9.30;99.90;;;;;;4885391;29;20096;-46
2022/03/14 00:02:43;;;;;;;21.50;18.37;;;9.20;99.90;;;;;;4868623;29;20061;-46
2022/03/14 00:05:13;;;;;;;21.17;18.35;;;9.20;99.90;;;;;;4887662;29;20307;-47
2022/03/14 00:07:39;;;;;;;22.65;18.10;;;9.20;99.90;;;;;;4891699;29;20516;-46
2022/03/14 00:10:06;;;;;;;22.38;18.52;;;9.20;99.90;;;;;;4884043;29;20115;-47
2022/03/14 00:12:32;;;;;;;20.48;18.23;;;9.10;99.90;;;;;;4884784;29;20045;-46
2022/03/14 00:15:00;;;;;;;23.70;18.52;;;9.10;99.90;;;;;;4884653;29;20555;-46
2022/03/14 00:17:26;;;;;;;20.67;18.13;;;9.20;99.90;;;;;;4885082;29;20049;-46
2022/03/14 00:19:53;;;;;;;21.67;17.67;;;9.20;99.90;;;;;;4884798;29;20071;-45
2022/03/14 00:22:19;;;;;;;22.00;18.33;;;9.20;99.90;;;;;;4885277;29;20570;-45
2022/03/14 00:24:45;;;;;;;22.15;18.23;;;9.10;99.90;;;;;;4885649;29;20155;-46
2022/03/14 00:27:11;;;;;;;22.02;17.02;;;9.10;99.90;;;;;;4884299;29;20417;-46
2022/03/14 00:29:37;;;;;;;20.83;18.50;;;9.10;99.90;;;;;;4885567;29;20058;-46
2022/03/14 00:32:03;;;;;;;21.35;18.55;;;9.10;99.90;;;;;;4890227;29;20049;-44
2022/03/14 00:34:34;;;;;;;21.70;18.30;;;9.20;99.90;;;;;;4888444;29;20084;-46
2022/03/14 00:37:00;;;;;;;22.00;18.08;;;9.20;99.90;;;;;;4888572;29;20064;-45
2022/03/14 00:39:26;;;;;;;20.92;18.00;;;9.20;99.90;;;;;;4888345;29;20049;-47
2022/03/14 00:41:51;;;;;;;20.20;17.40;;;9.20;99.90;;;;;;4887535;29;20060;-45
2022/03/14 00:44:18;;;;;;;19.55;17.35;;;9.20;99.90;;;;;;4886995;29;20052;-46
2022/03/14 00:46:44;;;;;;;19.88;16.98;;;9.20;99.90;;;;;;4888959;29;20060;-47
2022/03/14 00:49:11;;;;;;;18.30;16.33;;;9.20;99.90;;;;;;4872542;29;20071;-46
2022/03/14 00:51:37;;;;;;;19.20;17.17;;;9.20;99.90;;;;;;4890868;29;20063;-50
2022/03/14 00:54:04;;;;;;;18.80;16.80;;;9.20;99.90;;;;;;4890637;29;20056;-47
2022/03/14 00:56:30;;;;;;;19.38;17.05;;;9.20;99.90;;;;;;4891801;29;20111;-48
2022/03/14 00:58:59;;;;;;;20.13;18.02;;;9.20;99.90;;;;;;4872079;29;20087;-47
2022/03/14 01:01:26;;;;;;;20.73;17.70;;;9.20;99.90;;;;;;4871206;29;20060;-49
2022/03/14 01:03:53;;;;;;;21.98;16.88;;;9.20;99.90;;;;;;4888866;29;20056;-49
2022/03/14 01:06:20;;;;;;;22.58;19.17;;;9.20;99.90;;;;;;4887524;29;20095;-47
2022/03/14 01:08:46;;;;;;;21.10;18.13;;;9.20;99.90;;;;;;4887994;29;20135;-47
2022/03/14 01:11:11;;;;;;;18.38;15.88;;;9.20;99.90;;;;;;4870585;29;20582;-48
2022/03/14 01:13:37;;;;;;;18.67;16.50;;;9.10;99.90;;;;;;4888648;29;20144;-46
2022/03/14 01:16:03;;;;;;;18.15;15.85;;;9.10;99.90;;;;;;4888659;29;20423;-45
2022/03/14 01:18:30;;;;;;;16.75;14.95;;;9.20;99.90;;;;;;4887553;29;20597;-48
2022/03/14 01:20:56;;;;;;;16.75;14.45;;;9.20;99.90;;;;;;4887504;29;20052;-47
2022/03/14 01:23:22;;;;;;;18.25;15.70;;;9.20;99.90;;;;;;4870737;29;20158;-49
2022/03/14 01:25:49;;;;;;;17.33;15.48;;;9.20;99.90;;;;;;4887846;29;20069;-45
2022/03/14 01:28:19;;;;;;;16.38;14.55;;;9.20;99.90;;;;;;4887253;29;20488;-45
2022/03/14 01:30:45;;;;;;;19.27;14.65;;;9.20;99.90;;;;;;4889179;29;20036;-49
2022/03/14 01:33:12;;;;;;;17.42;14.90;;;9.20;99.90;;;;;;4886993;29;20469;-47
2022/03/14 01:35:39;;;;;;;15.55;13.85;;;9.20;99.90;;;;;;4888066;29;20052;-48
2022/03/14 01:38:05;;;;;;;16.85;15.15;;;9.20;99.90;;;;;;4877898;29;20123;-47
2022/03/14 01:40:31;;;;;;;17.40;14.70;;;9.30;99.90;;;;;;4886204;29;20103;-45
2022/03/14 01:42:57;;;;;;;20.02;14.50;;;9.30;99.90;;;;;;4887396;29;20048;-46
2022/03/14 01:45:24;;;;;;;16.45;14.60;;;9.20;99.90;;;;;;4886058;29;20457;-45
2022/03/14 01:47:55;;;;;;;19.60;15.50;;;9.20;99.90;;;;;;4887822;29;20223;-46
2022/03/14 01:50:22;;;;;;;18.02;14.25;;;9.20;99.90;;;;;;4871154;29;20060;-46
2022/03/14 01:52:48;;;;;;;15.25;13.65;;;9.20;99.90;;;;;;4867053;29;20195;-47
2022/03/14 01:55:14;;;;;;;14.93;13.43;;;9.20;99.90;;;;;;4852810;29;20083;-46
2022/03/14 01:57:43;;;;;;;14.65;13.10;;;9.20;99.90;;;;;;4887836;29;20061;-46
2022/03/14 02:00:11;;;;;;;14.13;12.73;;;9.20;99.90;;;;;;4886657;29;20057;-45
2022/03/14 02:02:37;;;;;;;14.30;12.07;;;9.20;99.90;;;;;;4887341;29;20416;-46
2022/03/14 02:05:03;;;;;;;12.57;11.27;;;9.20;99.90;;;;;;4889662;29;20048;-47
2022/03/14 02:07:34;;;;;;;13.07;11.68;;;9.20;99.90;;;;;;4895919;29;20060;-46
2022/03/14 02:10:00;;;;;;;14.93;13.43;;;9.20;99.90;;;;;;4879881;29;20048;-47
2022/03/14 02:12:26;;;;;;;14.40;12.90;;;9.20;99.90;;;;;;4890585;29;20080;-48
2022/03/14 02:14:52;;;;;;;17.35;12.40;;;9.20;99.90;;;;;;4887434;29;20165;-54
2022/03/14 02:17:21;;;;;;;15.73;11.85;;;9.20;99.90;;;;;;4887618;29;20492;-46
2022/03/14 02:19:47;;;;;;;12.75;11.43;;;9.20;99.90;;;;;;4885040;29;20076;-50
2022/03/14 02:22:14;;;;;;;13.15;11.40;;;9.20;99.90;;;;;;4886967;29;20052;-46
2022/03/14 02:24:46;;;;;;;13.50;11.75;;;9.20;99.90;;;;;;4883716;29;20067;-45
2022/03/14 02:27:13;;;;;;;12.35;10.60;;;9.20;99.90;;;;;;4887208;29;20060;-46
2022/03/14 02:29:40;;;;;;;12.32;11.02;;;9.20;99.90;;;;;;4886143;29;20052;-45
2022/03/14 02:32:08;;;;;;;11.32;10.13;;;9.20;99.90;;;;;;4894798;29;20401;-52
2022/03/14 02:34:34;;;;;;;11.88;10.57;;;9.20;99.90;;;;;;4877813;29;20048;-46
2022/03/14 02:37:02;;;;;;;11.50;9.82;;;9.20;99.90;;;;;;4887589;29;20449;-47
2022/03/14 02:39:28;;;;;;;11.30;10.05;;;9.20;99.90;;;;;;4886703;29;20519;-48
2022/03/14 02:41:54;;;;;;;11.60;10.13;;;9.20;99.90;;;;;;4885560;29;20056;-45
2022/03/14 02:44:20;;;;;;;11.65;10.43;;;9.20;99.90;;;;;;4886382;29;20063;-46
2022/03/14 02:46:46;;;;;;;12.00;10.48;;;9.20;99.90;;;;;;4886114;29;20087;-47
2022/03/14 02:49:12;;;;;;;11.02;9.88;;;9.20;99.90;;;;;;4862073;29;20060;-50
2022/03/14 02:51:39;;;;;;;11.55;10.35;;;9.20;99.90;;;;;;4886172;29;20060;-47
2022/03/14 02:54:06;;;;;;;11.20;10.10;;;9.20;99.90;;;;;;4886877;29;20159;-46
2022/03/14 02:56:37;;;;;;;10.10;8.98;;;9.20;99.90;;;;;;4885610;29;20538;-50
2022/03/14 02:59:04;;;;;;;10.73;9.13;;;9.20;99.90;;;;;;4884624;29;20055;-47
2022/03/14 03:01:30;;;;;;;9.68;8.63;;;9.20;99.90;;;;;;4885262;29;20052;-48
2022/03/14 03:03:55;;;;;;;9.65;8.65;;;9.20;99.90;;;;;;4868890;29;20504;-45
2022/03/14 03:06:22;;;;;;;8.18;7.38;;;9.20;99.90;;;;;;4871999;29;20145;-46
2022/03/14 03:08:53;;;;;;;7.28;6.50;;;9.20;99.90;;;;;;4886512;29;20664;-46
2022/03/14 03:11:22;;;;;;;7.30;6.50;;;9.40;99.90;;;;;;4885516;29;20591;-45
2022/03/14 03:13:48;;;;;;;6.53;5.50;;;9.30;99.90;;;;;;4886210;29;20051;-45
2022/03/14 03:16:15;;;;;;;6.00;5.40;;;9.40;99.90;;;;;;4884416;29;20052;-46
2022/03/14 03:18:45;;;;;;;7.28;5.72;;;9.50;99.90;;;;;;4885572;29;20116;-47
2022/03/14 03:21:11;;;;;;;7.07;6.05;;;9.50;99.90;;;;;;4870590;29;20071;-45
2022/03/14 03:23:37;;;;;;;6.38;5.72;;;9.60;99.90;;;;;;4870005;29;20469;-46
2022/03/14 03:26:06;;;;;;;7.20;6.38;;;9.60;99.90;;;;;;4885207;29;20060;-45
2022/03/14 03:28:35;;;;;;;6.25;4.95;;;9.60;99.90;;;;;;4871758;29;20051;-49
2022/03/14 03:31:21;;;;;;;6.18;5.30;;;9.70;99.90;;;;;;4886400;29;20046;-50
2022/03/14 03:33:50;;;;;;;8.20;5.53;;;9.60;99.90;;;;;;4886233;29;20066;-48
2022/03/14 03:36:15;;;;;;;6.10;5.50;;;9.60;99.90;;;;;;4884710;29;20056;-45
2022/03/14 03:38:42;;;;;;;5.93;5.35;;;9.60;99.90;;;;;;4885074;29;20063;-44
2022/03/14 03:41:07;;;;;;;5.85;4.72;;;9.50;99.90;;;;;;4885500;29;20075;-45
2022/03/14 03:43:33;;;;;;;5.97;4.75;;;9.50;99.90;;;;;;4868755;29;20488;-49
2022/03/14 03:45:59;;;;;;;5.63;5.07;;;9.40;99.90;;;;;;4883172;29;20060;-46
2022/03/14 03:48:25;;;;;;;5.78;5.07;;;9.40;99.90;;;;;;4884378;29;20116;-45
2022/03/14 03:50:51;;;;;;;5.78;5.18;;;9.40;99.90;;;;;;4885783;29;20040;-46
2022/03/14 03:53:17;;;;;;;5.53;4.95;;;9.50;99.90;;;;;;4884749;29;20464;-45
2022/03/14 03:55:42;;;;;;;6.28;5.55;;;9.40;99.90;;;;;;4885929;29;20053;-46
2022/03/14 03:58:08;;;;;;;6.57;5.13;;;9.40;99.90;;;;;;4884741;29;20061;-46
2022/03/14 04:00:34;;;;;;;8.13;6.03;;;9.40;99.90;;;;;;4885518;29;20053;-47
2022/03/14 04:03:00;;;;;;;7.00;5.90;;;9.40;99.90;;;;;;4884758;29;20580;-47
2022/03/14 04:05:27;;;;;;;6.68;5.72;;;9.40;99.90;;;;;;4888251;29;20049;-48
2022/03/14 04:07:57;;;;;;;6.05;5.45;;;9.30;99.90;;;;;;4888658;29;20063;-46
2022/03/14 04:10:26;;;;;;;5.65;5.07;;;9.30;99.90;;;;;;4889390;29;20560;-45
2022/03/14 04:12:52;;;;;;;6.18;5.30;;;9.30;99.90;;;;;;4871313;29;20049;-47
2022/03/14 04:15:22;;;;;;;6.18;5.57;;;9.30;99.90;;;;;;4871762;29;20087;-46
2022/03/14 04:17:50;;;;;;;5.80;5.20;;;9.30;99.90;;;;;;4889271;29;20112;-48
2022/03/14 04:20:15;;;;;;;5.82;5.22;;;9.30;99.90;;;;;;4889680;29;20052;-47
2022/03/14 04:22:41;;;;;;;6.07;5.47;;;9.30;99.90;;;;;;4888620;29;20436;-47
2022/03/14 04:25:11;;;;;;;5.45;4.72;;;9.20;99.90;;;;;;4889101;29;20065;-49
2022/03/14 04:27:37;;;;;;;5.55;4.65;;;9.20;99.90;;;;;;4888830;29;20899;-47
2022/03/14 04:30:03;;;;;;;4.88;4.38;;;9.20;99.90;;;;;;4889148;29;20131;-46
2022/03/14 04:32:29;;;;;;;5.63;4.18;;;9.20;99.90;;;;;;4873964;29;20064;-51
2022/03/14 04:34:55;;;;;;;4.93;4.43;;;9.20;99.90;;;;;;4889851;29;20052;-45
2022/03/14 04:37:21;;;;;;;5.43;4.68;;;9.30;99.90;;;;;;4872454;29;20139;-48
2022/03/14 04:39:47;;;;;;;4.55;4.03;;;9.20;99.90;;;;;;4890057;29;20069;-45
2022/03/14 04:42:15;;;;;;;4.97;4.20;;;9.20;99.90;;;;;;4890561;29;20292;-45
2022/03/14 04:44:40;;;;;;;5.15;4.05;;;9.30;99.90;;;;;;4891410;29;20076;-45
2022/03/14 04:47:06;;;;;;;5.32;3.92;;;9.30;99.90;;;;;;4889695;29;20040;-50
2022/03/14 04:49:32;;;;;;;3.92;3.53;;;9.30;99.90;;;;;;4889038;29;20105;-49
2022/03/14 04:51:59;;;;;;;4.55;3.38;;;9.30;99.90;;;;;;4887257;29;20052;-45
2022/03/14 04:54:25;;;;;;;5.20;3.47;;;9.30;99.90;;;;;;4889269;29;20052;-44
2022/03/14 04:56:51;;;;;;;4.60;3.63;;;9.30;99.90;;;;;;4889183;29;20143;-46
2022/03/14 04:59:17;;;;;;;3.85;3.35;;;9.30;99.90;;;;;;4888561;29;20056;-47
2022/03/14 05:01:43;;;;;;;4.07;3.47;;;9.40;99.90;;;;;;4887840;29;20534;-46
2022/03/14 05:04:09;;;;;;;4.25;3.50;;;9.40;99.90;;;;;;4888630;29;20057;-46
2022/03/14 05:06:35;;;;;;;3.97;3.58;;;9.40;99.90;;;;;;4889062;29;20045;-46
2022/03/14 05:09:01;;;;;;;4.10;3.55;;;9.40;99.90;;;;;;4888389;29;20533;-45
2022/03/14 05:11:27;;;;;;;4.53;3.95;;;9.50;99.90;;;;;;4888872;29;20047;-48
2022/03/14 05:13:59;;;;;;;3.85;3.45;;;9.50;99.90;;;;;;4888895;29;20411;-47
2022/03/14 05:16:25;;;;;;;4.15;3.33;;;9.50;99.90;;;;;;4888300;29;20666;-45
2022/03/14 05:18:51;;;;;;;3.92;3.30;;;9.50;99.90;;;;;;4886396;29;20057;-46
2022/03/14 05:21:18;;;;;;;4.15;3.53;;;9.50;99.90;;;;;;4888100;29;20052;-46
2022/03/14 05:23:44;;;;;;;4.50;3.78;;;9.50;99.90;;;;;;4888875;29;20045;-47
2022/03/14 05:26:10;;;;;;;3.92;3.33;;;9.50;99.90;;;;;;4887403;29;20136;-46
2022/03/14 05:28:35;;;;;;;4.30;3.65;;;9.40;99.90;;;;;;4888209;29;20543;-45
2022/03/14 05:31:01;;;;;;;4.95;3.67;;;9.40;99.90;;;;;;4887427;29;20420;-45
2022/03/14 05:33:28;;;;;;;4.15;3.63;;;9.40;99.90;;;;;;4888076;29;20438;-44
2022/03/14 05:35:54;;;;;;;4.22;3.83;;;9.40;99.90;;;;;;4887852;29;20052;-47
2022/03/14 05:38:22;;;;;;;3.58;3.22;;;9.40;99.90;;;;;;4887887;29;20452;-48
2022/03/14 05:40:49;;;;;;;6.28;4.18;;;9.30;99.90;;;;;;4885282;29;20060;-48
2022/03/14 05:43:14;;;;;;;4.50;3.65;;;9.30;99.90;;;;;;4888161;29;20059;-47
2022/03/14 05:45:40;;;;;;;4.05;3.63;;;9.30;99.90;;;;;;4887771;29;20048;-46
2022/03/14 05:48:06;;;;;;;4.45;3.90;;;9.30;99.90;;;;;;4888322;29;20052;-48
2022/03/14 05:50:32;;;;;;;3.63;3.25;;;9.30;99.90;;;;;;4887469;29;20048;-45
2022/03/14 05:52:58;;;;;;;4.07;3.30;;;9.20;99.90;;;;;;4887479;29;20059;-45
2022/03/14 05:55:24;;;;;;;3.97;3.58;;;9.20;99.90;;;;;;4888599;29;20559;-45
2022/03/14 05:57:50;;;;;;;4.55;3.78;;;9.20;99.90;;;;;;4889684;29;20052;-46
2022/03/14 06:00:22;;;;;;;4.78;3.85;;;9.20;99.90;;;;;;4889325;29;20072;-47
2022/03/14 06:02:49;;;;;;;3.63;3.28;;;9.20;99.90;;;;;;4887649;29;20144;-46
2022/03/14 06:05:17;;;;;;;4.15;3.72;;;9.20;99.90;;;;;;4885731;29;20072;-47
2022/03/14 06:07:44;;;;;;;5.25;3.80;;;9.30;99.90;;;;;;4886342;29;20595;-46
2022/03/14 06:10:11;;;;;;;5.45;4.30;;;9.30;99.90;;;;;;4886379;29;20127;-46
2022/03/14 06:12:37;;;;;;;4.70;4.07;;;9.30;99.90;;;;;;4886674;29;20048;-45
2022/03/14 06:15:09;;;;;;;5.20;4.10;;;9.30;99.90;;;;;;4886354;29;20060;-45
2022/03/14 06:17:35;;;;;;;4.07;3.67;;;9.20;99.90;;;;;;4869076;29;20423;-46
2022/03/14 06:20:02;;;;;;;4.45;4.05;;;9.20;99.90;;;;;;4887353;29;20051;-46
2022/03/14 06:22:29;;;;;;;4.50;3.75;;;9.20;99.90;;;;;;4876135;29;20135;-45
2022/03/14 06:24:54;;;;;;;5.00;3.55;;;9.30;99.90;;;;;;4886900;29;20088;-44
2022/03/14 06:27:22;;;;;;;5.00;4.50;;;9.30;99.90;;;;;;4885944;29;20140;-46
2022/03/14 06:29:48;;;;;;;4.40;4.00;;;9.30;99.90;;;;;;4868694;29;20109;-44
2022/03/14 06:32:15;;;;;;;6.28;4.28;;;9.30;99.90;;;;;;4870394;29;20052;-46
2022/03/14 06:34:42;;;;;;;7.13;4.57;;;9.30;99.90;;;;;;4887500;29;20067;-46
2022/03/14 06:37:09;;;;;;;4.38;3.97;;;9.30;99.90;;;;;;4887591;29;20151;-46
2022/03/14 06:39:39;;;;;;;4.65;4.25;;;9.30;99.90;;;;;;4887009;29;20049;-48
2022/03/14 06:42:09;;;;;;;6.03;4.55;;;9.30;99.90;;;;;;4869384;29;20056;-45
2022/03/14 06:44:40;;;;;;;5.13;4.57;;;9.30;99.90;;;;;;4887349;29;20056;-46
2022/03/14 06:47:10;;;;;;;5.43;4.93;;;9.30;99.90;;;;;;4886146;29;20086;-46
2022/03/14 06:49:37;;;;;;;5.63;5.10;;;9.30;99.90;;;;;;4885290;29;20045;-46
2022/03/14 06:52:04;;;;;;;5.93;5.10;;;9.30;99.90;;;;;;4881564;29;20490;-47
2022/03/14 06:54:30;;;;;;;6.25;5.00;;;9.40;99.90;;;;;;4878541;29;20467;-47
2022/03/14 06:56:55;;;;;;;5.70;5.10;;;9.30;99.90;;;;;;4886236;29;20049;-47
2022/03/14 06:59:22;;;;;;;7.22;5.45;;;9.30;99.90;;;;;;4886368;29;20056;-46
2022/03/14 07:01:47;;;;;;;5.80;5.18;;;9.30;99.90;;;;;;4886471;29;20438;-45
2022/03/14 07:04:13;;;;;;;6.10;5.40;;;9.30;99.90;;;;;;4886723;29;20059;-47
2022/03/14 07:06:39;;;;;;;5.82;5.00;;;9.30;99.90;;;;;;4869870;29;20599;-46
2022/03/14 07:09:05;;;;;;;8.15;5.20;;;9.40;99.90;;;;;;4887209;29;20055;-49
2022/03/14 07:11:31;;;;;;;7.75;6.30;;;9.40;99.90;;;;;;4886479;29;20041;-46
2022/03/14 07:13:57;;;;;;;6.60;5.70;;;9.40;99.90;;;;;;4872190;29;20064;-48
2022/03/14 07:16:23;;;;;;;6.03;5.43;;;9.40;99.90;;;;;;4886841;29;20099;-46
2022/03/14 07:18:49;;;;;;;6.45;5.43;;;9.40;99.90;;;;;;4887678;29;20090;-50
2022/03/14 07:21:16;;;;;;;5.55;4.95;;;9.40;99.90;;;;;;4878423;29;20127;-46
2022/03/14 07:23:42;;;;;;;6.03;5.43;;;9.50;99.90;;;;;;4887040;29;20048;-46
2022/03/14 07:26:08;;;;;;;6.38;5.53;;;9.50;99.90;;;;;;4869371;29;20381;-46
2022/03/14 07:28:34;;;;;;;6.63;5.75;;;9.50;99.90;;;;;;4886038;29;20060;-46
2022/03/14 07:30:59;;;;;;;7.72;6.43;;;9.50;99.90;;;;;;4894891;29;20056;-45
2022/03/14 07:33:25;;;;;;;6.57;5.90;;;9.50;99.90;;;;;;4892541;29;20044;-50
2022/03/14 07:35:51;;;;;;;7.88;6.20;;;9.50;99.90;;;;;;4893302;29;20045;-47
2022/03/14 07:38:17;;;;;;;6.88;6.18;;;9.50;99.90;;;;;;4904828;29;20093;-45
2022/03/14 07:40:43;;;;;;;7.20;6.50;;;9.50;99.90;;;;;;4900958;29;20059;-45
2022/03/14 07:43:09;;;;;;;8.23;7.22;;;9.50;99.90;;;;;;4885975;29;20048;-46
2022/03/14 07:45:38;;;;;;;7.53;6.72;;;9.50;99.90;;;;;;4888896;29;20504;-47
2022/03/14 07:48:04;;;;;;;8.20;7.35;;;9.50;99.90;;;;;;4886271;29;20052;-47
2022/03/14 07:50:30;;;;;;;8.85;8.00;;;9.50;99.90;;;;;;4884499;29;20520;-46
2022/03/14 07:52:56;;;;;;;10.27;9.15;;;9.50;99.90;;;;;;4876229;29;20136;-46
2022/03/14 07:55:23;;;;;;;10.45;9.45;;;9.50;99.90;;;;;;4885818;29;20044;-45
2022/03/14 07:57:50;;;;;;;10.73;9.45;;;9.50;99.90;;;;;;4885386;29;20062;-46
2022/03/14 08:00:18;;;;;;;11.35;10.25;;;9.50;99.90;;;;;;4886073;29;20057;-46
2022/03/14 08:02:47;;;;;;;17.33;14.90;;;9.50;99.90;;;;;;4867981;29;20086;-45
2022/03/14 08:05:15;;;;;;;15.70;14.18;;;9.50;99.90;;;;;;4885226;29;20056;-45
2022/03/14 08:07:44;;;;;;;16.98;15.27;;;9.50;99.90;;;;;;4885578;29;20089;-47
2022/03/14 08:10:12;;;;;;;20.60;18.50;;;9.50;99.90;;;;;;4886446;29;20160;-47
2022/03/14 08:12:57;;;;;;;22.67;20.38;;;9.50;99.90;;;;;;4885466;29;20115;-50
2022/03/14 08:15:27;;;;;;;24.67;22.17;;;9.40;99.90;;;;;;4877165;29;20411;-48
2022/03/14 08:17:59;;;;;;;25.48;22.58;;;9.50;99.90;;;;;;4884796;29;20487;-45
2022/03/14 08:20:26;;;;;;;25.00;22.37;;;9.50;99.90;;;;;;4886222;29;20059;-47
2022/03/14 08:22:53;;;;;;;24.25;21.67;;;9.40;99.90;;;;;;4884062;29;20336;-45
2022/03/14 08:25:21;;;;;;;24.52;21.95;;;9.40;99.90;;;;;;4885269;29;20060;-47
2022/03/14 08:27:47;;;;;;;26.13;23.33;;;9.40;99.90;;;;;;4885328;29;20064;-46
2022/03/14 08:30:13;;;;;;;27.95;23.45;;;9.40;99.90;;;;;;4885151;29;20048;-49
2022/03/14 08:32:39;;;;;;;28.60;25.27;;;9.40;99.90;;;;;;4868552;29;20068;-48
2022/03/14 08:35:10;;;;;;;28.42;24.33;;;9.30;99.90;;;;;;4869257;29;20855;-44
2022/03/14 08:37:41;;;;;;;29.38;26.17;;;9.30;99.90;;;;;;4885540;29;20083;-45
2022/03/14 08:40:11;;;;;;;32.13;27.15;;;9.30;99.90;;;;;;4884706;29;20088;-45
2022/03/14 08:42:38;;;;;;;33.28;27.90;;;9.30;99.90;;;;;;4868868;29;20450;-46
2022/03/14 08:45:05;;;;;;;35.10;29.17;;;9.30;99.90;;;;;;4889571;29;20496;-48
2022/03/14 08:47:36;;;;;;;36.55;31.00;;;9.30;99.90;;;;;;4885303;29;20554;-48
2022/03/14 08:50:04;;;;;;;36.65;30.48;;;9.30;99.90;;;;;;4886905;29;20055;-48
2022/03/14 08:52:30;;;;;;;38.00;30.25;;;9.30;99.90;;;;;;4882138;29;20861;-49
2022/03/14 08:54:59;;;;;;;36.63;29.52;;;9.30;99.90;;;;;;4884102;29;20111;-47
2022/03/14 08:57:25;;;;;;;37.20;29.98;;;9.20;99.90;;;;;;4886420;29;20045;-46
2022/03/14 08:59:52;;;;;;;36.03;29.40;;;9.10;99.90;;;;;;4887925;29;20136;-46
2022/03/14 09:02:18;;;;;;;36.58;28.25;;;9.10;99.90;;;;;;4875908;29;20609;-48
2022/03/14 09:04:44;;;;;;;35.88;28.27;;;9.20;99.90;;;;;;4867827;29;20053;-45
2022/03/14 09:07:10;;;;;;;36.53;27.77;;;9.10;99.90;;;;;;4888581;29;20115;-48
2022/03/14 09:09:37;;;;;;;35.80;26.95;;;9.20;99.90;;;;;;4888341;29;20389;-46
2022/03/14 09:12:03;;;;;;;40.67;27.20;;;9.20;99.90;;;;;;4892027;29;20165;-45
2022/03/14 09:14:32;;;;;;;36.83;26.27;;;9.20;99.90;;;;;;4890921;29;20115;-45
2022/03/14 09:16:58;;;;;;;36.33;26.52;;;9.20;99.90;;;;;;4886769;29;20608;-47
2022/03/14 09:19:26;;;;;;;30.95;23.83;;;9.30;99.90;;;;;;4886527;29;20587;-44
2022/03/14 09:21:58;;;;;;;32.58;23.40;;;9.30;99.90;;;;;;4895081;29;20060;-47
2022/03/14 09:24:24;;;;;;;32.55;23.17;;;9.40;99.90;;;;;;4884739;29;20053;-44
2022/03/14 09:26:50;;;;;;;25.85;19.63;;;9.40;99.90;;;;;;4887595;29;20083;-47
2022/03/14 09:29:16;;;;;;;29.48;20.58;;;9.50;99.90;;;;;;4887103;29;20050;-45
2022/03/14 09:31:42;;;;;;;26.92;18.75;;;9.50;99.90;;;;;;4886893;29;20350;-44
2022/03/14 09:34:08;;;;;;;26.13;18.77;;;9.50;99.90;;;;;;4887051;29;20048;-45
2022/03/14 09:36:34;;;;;;;25.92;17.48;;;9.50;99.90;;;;;;4887981;29;20059;-46
2022/03/14 09:39:00;;;;;;;27.67;17.92;;;9.50;99.90;;;;;;4888218;29;20080;-43
2022/03/14 09:41:30;;;;;;;25.73;15.95;;;9.50;99.90;;;;;;4888721;29;20098;-47
2022/03/14 09:43:58;;;;;;;25.13;16.77;;;9.60;99.90;;;;;;4889112;29;21362;-47
2022/03/14 09:46:25;;;;;;;25.58;17.10;;;9.70;99.90;;;;;;4889228;29;20048;-46
2022/03/14 09:48:53;;;;;;;20.58;14.02;;;9.80;99.90;;;;;;4888917;29;20124;-45
2022/03/14 09:51:21;;;;;;;24.95;13.32;;;9.90;99.90;;;;;;4888320;29;20052;-45
2022/03/14 09:53:49;;;;;;;24.25;12.13;;;9.90;99.90;;;;;;4887362;29;20499;-47
2022/03/14 09:56:15;;;;;;;18.50;10.57;;;9.90;99.90;;;;;;4888403;29;20052;-44
2022/03/14 09:58:44;;;;;;;20.20;10.20;;;10.00;99.90;;;;;;4872173;29;20063;-44
2022/03/14 10:01:10;;;;;;;15.43;8.48;;;10.10;99.90;;;;;;4899554;29;20052;-49
2022/03/14 10:03:36;;;;;;;20.40;8.95;;;10.10;99.90;;;;;;4889457;29;20060;-49
2022/03/14 10:06:02;;;;;;;13.38;7.75;;;10.10;99.90;;;;;;4889708;29;20060;-46
2022/03/14 10:08:28;;;;;;;14.43;8.00;;;10.20;99.90;;;;;;4887874;29;20053;-46
2022/03/14 10:10:54;;;;;;;14.75;7.15;;;10.20;99.90;;;;;;4888730;29;20060;-46
2022/03/14 10:13:19;;;;;;;15.05;7.72;;;10.20;99.90;;;;;;4888001;29;20060;-45
2022/03/14 10:15:45;;;;;;;17.63;8.15;;;10.30;99.90;;;;;;4889482;29;20065;-46
2022/03/14 10:18:18;;;;;;;17.75;7.28;;;10.20;99.90;;;;;;4887442;29;20083;-46
2022/03/14 10:21:07;;;;;;;18.23;7.93;;;10.30;99.90;;;;;;4888355;29;20063;-45
2022/03/14 10:23:43;;;;;;;15.07;7.78;;;10.30;99.90;;;;;;4871551;29;20543;-45
2022/03/14 10:26:16;;;;;;;12.68;7.28;;;10.30;99.90;;;;;;4893975;29;20140;-45
2022/03/14 10:28:48;;;;;;;15.60;7.55;;;10.30;99.90;;;;;;4891832;29;20444;-44
2022/03/14 10:31:15;;;;;;;11.95;7.40;;;10.30;99.90;;;;;;4868195;29;20461;-43
2022/03/14 10:33:40;;;;;;;11.60;6.93;;;10.30;99.90;;;;;;4887201;29;20385;-44
2022/03/14 10:36:08;;;;;;;14.93;7.13;;;10.20;99.90;;;;;;4887867;29;20056;-46
2022/03/14 10:38:45;;;;;;;14.07;8.55;;;10.20;99.90;;;;;;4869346;29;20107;-47
2022/03/14 10:41:15;;;;;;;15.18;8.60;;;10.30;99.90;;;;;;4875354;29;20543;-45
2022/03/14 10:43:42;;;;;;;15.48;9.63;;;10.40;99.90;;;;;;4887409;29;20653;-45
2022/03/14 10:46:14;;;;;;;17.50;9.15;;;10.30;99.90;;;;;;4889571;29;20091;-47
2022/03/14 10:48:45;;;;;;;16.10;9.38;;;10.40;99.90;;;;;;4887748;29;20062;-47
2022/03/14 10:51:14;;;;;;;15.75;10.18;;;10.40;99.90;;;;;;4870685;29;20575;-46
2022/03/14 10:53:53;;;;;;;16.30;10.75;;;10.40;99.90;;;;;;4868210;29;20060;-45
2022/03/14 10:56:27;;;;;;;16.75;11.02;;;10.30;99.90;;;;;;4870235;29;20068;-47
2022/03/14 10:59:07;;;;;;;26.13;11.10;;;10.30;99.90;;;;;;4887360;29;20056;-46
2022/03/14 11:01:33;;;;;;;15.10;10.85;;;10.30;99.90;;;;;;4888087;29;20060;-46
2022/03/14 11:03:59;;;;;;;15.48;10.38;;;10.30;99.90;;;;;;4890677;29;20056;-46
2022/03/14 11:06:27;;;;;;;18.80;11.30;;;10.30;99.90;;;;;;4890614;29;20088;-49
2022/03/14 11:08:53;;;;;;;19.48;12.15;;;10.40;99.90;;;;;;4889383;29;20138;-46
2022/03/14 11:11:23;;;;;;;18.30;12.63;;;10.40;99.90;;;;;;4853742;29;20575;-47
2022/03/14 11:13:51;;;;;;;21.27;14.23;;;10.50;99.90;;;;;;4887722;29;20048;-48
2022/03/14 11:16:26;;;;;;;20.05;13.73;;;10.50;99.90;;;;;;4871670;29;20135;-47
2022/03/14 11:18:53;;;;;;;19.25;14.02;;;10.60;99.90;;;;;;4889122;29;20059;-48
2022/03/14 11:21:21;;;;;;;20.33;14.50;;;10.60;99.90;;;;;;4887388;29;20061;-47
2022/03/14 11:23:49;;;;;;;22.15;14.68;;;10.60;99.90;;;;;;4887592;29;21087;-47
2022/03/14 11:26:20;;;;;;;21.92;14.25;;;10.60;99.90;;;;;;4892890;29;20056;-45
2022/03/14 11:28:51;;;;;;;23.48;16.10;;;10.70;99.90;;;;;;4887480;29;20464;-47
2022/03/14 11:31:22;;;;;;;24.48;16.42;;;10.80;99.90;;;;;;4886891;29;20539;-46
2022/03/14 11:33:49;;;;;;;24.40;17.73;;;10.90;99.90;;;;;;4889848;29;20060;-47
2022/03/14 11:36:19;;;;;;;19.42;16.33;;;10.90;99.90;;;;;;4887263;29;20049;-46
2022/03/14 11:38:46;;;;;;;23.50;18.23;;;10.90;99.90;;;;;;4886391;29;20051;-46
2022/03/14 11:41:13;;;;;;;25.50;19.50;;;10.90;99.90;;;;;;4886595;29;20240;-45
2022/03/14 11:43:40;;;;;;;28.30;21.75;;;10.90;99.90;;;;;;4887131;29;20391;-47
2022/03/14 11:46:06;;;;;;;22.45;19.73;;;10.90;99.90;;;;;;4870675;29;20491;-47
2022/03/14 11:48:35;;;;;;;25.23;22.50;;;10.90;99.90;;;;;;4869441;29;20067;-45
2022/03/14 11:51:06;;;;;;;30.10;22.65;;;10.90;99.90;;;;;;4877136;29;20063;-48
2022/03/14 11:53:34;;;;;;;29.48;23.27;;;10.90;99.90;;;;;;4889618;29;20686;-46
2022/03/14 11:56:02;;;;;;;31.73;23.33;;;10.90;99.90;;;;;;4870153;29;20579;-46
2022/03/14 11:58:34;;;;;;;29.38;23.55;;;11.00;99.90;;;;;;4885619;29;20131;-46
2022/03/14 12:01:18;;;;;;;27.65;21.90;;;11.10;99.90;;;;;;4886368;29;20143;-46
2022/03/14 12:03:52;;;;;;;35.30;22.95;;;11.20;99.90;;;;;;4887050;29;20055;-46
2022/03/14 12:06:47;;;;;;;26.63;20.45;;;11.30;99.90;;;;;;4887024;29;20052;-47
2022/03/14 12:09:35;;;;;;;27.10;19.45;;;11.40;99.90;;;;;;4886640;29;20074;-46
2022/03/14 12:12:20;;;;;;;27.00;20.15;;;11.50;99.90;;;;;;4879314;29;20060;-45
2022/03/14 12:14:56;;;;;;;27.48;21.73;;;11.70;99.90;;;;;;4886529;29;20429;-47
2022/03/14 12:17:27;;;;;;;23.58;19.50;;;11.70;99.90;;;;;;4854037;29;20056;-47
2022/03/14 12:20:12;;;;;;;24.40;20.48;;;11.80;99.90;;;;;;4886271;29;20064;-47
2022/03/14 12:22:40;;;;;;;25.02;20.30;;;11.90;99.90;;;;;;4889081;29;20052;-47
2022/03/14 12:25:08;;;;;;;26.02;21.15;;;12.00;99.90;;;;;;4896138;29;20098;-47
2022/03/14 12:27:39;;;;;;;22.00;19.55;;;12.00;99.90;;;;;;4893761;29;20128;-46
2022/03/14 12:30:24;;;;;;;29.27;20.73;;;12.10;99.90;;;;;;4891947;29;20060;-46
2022/03/14 12:32:55;;;;;;;26.02;20.35;;;12.20;99.90;;;;;;4895421;29;20052;-48
2022/03/14 12:35:25;;;;;;;23.35;19.40;;;12.30;99.90;;;;;;4863538;29;20059;-48
2022/03/14 12:37:52;;;;;;;21.17;16.67;;;12.30;99.90;;;;;;4878193;29;20063;-45
2022/03/14 12:40:21;;;;;;;22.13;17.88;;;12.30;99.90;;;;;;4872039;29;20052;-48
2022/03/14 12:43:09;;;;;;;20.52;16.67;;;12.20;99.90;;;;;;4904898;29;20061;-48
2022/03/14 12:45:44;;;;;;;19.88;15.10;;;12.30;99.90;;;;;;4873148;29;20069;-47